Beards Fork, West Virginia
Current Conditions -  °F | °C
As of 5:51 AM on Friday 24 Oct 2014 (Local Time) from KBKW Reporting Station
Haze Haze  
Wind Chill: 36°   Ceiling: Unl
Heat Index: 36°   Visibility: 5mi
Dew Point: 35°   Wind: 0mph
Humidity: 97%   Direction: NA
Pressure: 30.1"   Gusts: NA
Location:  38.096°N, 81.2492°W
Report Text: KBKW 240951Z AUTO 00000KT 5SM BR CLR 02/02 A3010 RMK AO2 SLP204 T00220017 TSNO
Loading
Personal Weather Stations






























Interactive Weather Map
Tropical Storm Tracking
New forecast layout! Learn more

10-Day Weather Forecast

Advertisements
Track Severe Weather on mobile